This is the latest recevied weather packets stored in our database for station/object KI5RAB. If no packets are shown the sender has not sent any weather packets the latest 1 day(s).
| Time | Temp. | Humidity | Pressure | Rain* | Wind** | Luminosity | Snow |
|---|---|---|---|---|---|---|---|
| 1836274772 | 27.22° C | 52% | 1018.5 hPa | 0 mm | 0 m/s | 0 W/m² | - |
| 1836274470 | 27.22° C | 52% | 1018.4 hPa | 0 mm | 0 m/s | 0 W/m² | - |
| 1836274324 | 27.78° C | 54% | 1018.6 hPa | 0 mm | 0 m/s | 0 W/m² | - |
| 1836274169 | 27.22° C | 53% | 1018.2 hPa | 0 mm | 0 m/s | 0 W/m² | - |
| 1836273869 | 27.78° C | 52% | 1018.4 hPa | 0 mm | 0 m/s | 0 W/m² | - |
| 1778041315 | 25° C | 87% | 1011.6 hPa | 0 mm | 0 m/s | 0 W/m² | - |
| 1778041013 | 25.56° C | 87% | 1011.6 hPa | 0 mm | 0 m/s | 0 W/m² | - |
| 1778040709 | 25.56° C | 87% | 1011.5 hPa | 0 mm | 0 m/s | 0 W/m² | - |
| 1778040407 | 25.56° C | 87% | 1011.6 hPa | 0 mm | 0.89 m/s, 340° | 0 W/m² | - |
| 1778040104 | 25.56° C | 87% | 1011.5 hPa | 0 mm | 0.45 m/s, 324° | 0 W/m² | - |
| 1778039801 | 25.56° C | 87% | 1011.3 hPa | 0 mm | 0.45 m/s, 345° | 0 W/m² | - |
| 1778039497 | 25.56° C | 87% | 1011.5 hPa | 0 mm | 0.45 m/s, 346° | 0 W/m² | - |
| 1778039194 | 25.56° C | 86% | 1011.2 hPa | 0 mm | 0.45 m/s, 6° | 0 W/m² | - |
| 1778038891 | 25.56° C | 86% | 1011 hPa | 0 mm | 0.89 m/s, 67° | 0 W/m² | - |
| 1778038589 | 25.56° C | 86% | 1011.1 hPa | 0 mm | 1.34 m/s, 45° | 0 W/m² | - |
| 1778038286 | 25.56° C | 86% | 1010.8 hPa | 0 mm | 0 m/s | 0 W/m² | - |
| 1778037983 | 25.56° C | 86% | 1010.9 hPa | 0 mm | 0 m/s | 0 W/m² | - |
| 1778037680 | 25.56° C | 86% | 1010.7 hPa | 0 mm | 0.89 m/s, 328° | 0 W/m² | - |
| 1778037377 | 26.11° C | 85% | 1010.6 hPa | 0 mm | 0 m/s | 0 W/m² | - |
| 1778037073 | 26.11° C | 85% | 1010.7 hPa | 0 mm | 0.45 m/s, 52° | 0 W/m² | - |
| 1778036772 | 26.11° C | 84% | 1010.7 hPa | 0 mm | 0.45 m/s, 326° | 0 W/m² | - |
| 1778036469 | 26.11° C | 84% | 1010.4 hPa | 0 mm | 0.45 m/s, 67° | 0 W/m² | - |
| 1778036166 | 26.11° C | 84% | 1010.5 hPa | 0 mm | 0.45 m/s, 4° | 0 W/m² | - |
| 1778035862 | 26.67° C | 83% | 1010.5 hPa | 0 mm | 0.45 m/s, 318° | 0 W/m² | - |
| 1778035559 | 26.67° C | 83% | 1010.2 hPa | 0 mm | 0 m/s | 0 W/m² | - |
* Rain latest hour (hover to see other rain measurements)
** Current wind speed in m/s (hover to see current wind gust speed)